createdAt,value
2018-04-12T00:00:16.712Z,8.10
2018-04-12T00:02:44.207Z,8.10
2018-04-12T00:05:11.678Z,8.10
2018-04-12T00:07:39.162Z,8.00
2018-04-12T00:10:06.655Z,8.10
2018-04-12T00:12:34.129Z,8.00
2018-04-12T00:15:02.371Z,8.00
2018-04-12T00:17:29.861Z,8.00
2018-04-12T00:19:57.325Z,8.00
2018-04-12T00:22:24.803Z,8.00
2018-04-12T00:24:52.289Z,7.90
2018-04-12T00:27:19.758Z,7.90
2018-04-12T00:29:47.344Z,7.80
2018-04-12T00:32:14.820Z,7.80
2018-04-12T00:34:42.316Z,7.70
2018-04-12T00:37:09.802Z,7.80
2018-04-12T00:39:37.333Z,7.70
2018-04-12T00:42:04.792Z,7.60
2018-04-12T00:44:32.253Z,7.60
2018-04-12T00:46:59.772Z,7.60
2018-04-12T00:49:27.286Z,7.60
2018-04-12T00:51:54.786Z,7.60
2018-04-12T00:54:22.297Z,7.70
2018-04-12T00:56:49.823Z,7.60
2018-04-12T00:59:17.266Z,7.70
2018-04-12T01:01:44.756Z,7.70
2018-04-12T01:04:12.720Z,7.70
2018-04-12T01:06:40.211Z,7.70
2018-04-12T01:09:08.455Z,7.60
2018-04-12T01:11:35.936Z,7.60
2018-04-12T01:14:03.428Z,7.70
2018-04-12T01:16:30.895Z,7.60
2018-04-12T01:18:58.459Z,7.60
2018-04-12T01:21:25.949Z,7.60
2018-04-12T01:23:53.434Z,7.60
2018-04-12T01:26:21.684Z,7.50
2018-04-12T01:28:49.166Z,7.70
2018-04-12T01:31:17.401Z,7.40
2018-04-12T01:33:44.872Z,7.40
2018-04-12T01:36:12.381Z,7.30
2018-04-12T01:38:39.839Z,7.30
2018-04-12T01:41:07.333Z,7.30
2018-04-12T01:43:34.807Z,7.20
2018-04-12T01:46:02.316Z,7.30
2018-04-12T01:48:29.807Z,7.20
2018-04-12T01:50:57.293Z,7.20
2018-04-12T01:53:24.793Z,7.30
2018-04-12T01:55:52.289Z,7.20
2018-04-12T01:58:19.795Z,7.30
2018-04-12T02:00:47.263Z,7.20
2018-04-12T02:03:14.779Z,7.20
2018-04-12T02:05:42.260Z,7.20
2018-04-12T02:08:10.515Z,7.10
2018-04-12T02:10:38.000Z,7.10
2018-04-12T02:13:05.518Z,7.10
2018-04-12T02:15:32.999Z,7.00
2018-04-12T02:18:00.493Z,7.00
2018-04-12T02:20:27.963Z,7.00
2018-04-12T02:22:55.887Z,7.20
2018-04-12T02:25:24.154Z,7.30
2018-04-12T02:27:51.642Z,7.20
2018-04-12T02:30:19.121Z,7.30
2018-04-12T02:32:46.622Z,7.50
2018-04-12T02:35:14.873Z,7.50
2018-04-12T02:37:42.398Z,7.50
2018-04-12T02:40:09.863Z,7.60
2018-04-12T02:42:37.346Z,7.70
2018-04-12T02:45:04.834Z,7.70
2018-04-12T02:47:33.061Z,8.00
2018-04-12T02:50:00.563Z,8.10
2018-04-12T02:52:28.025Z,8.10
2018-04-12T02:54:55.509Z,8.10
2018-04-12T02:57:22.980Z,8.10
2018-04-12T02:59:50.438Z,8.20
2018-04-12T03:02:17.948Z,8.30
2018-04-12T03:04:45.422Z,8.30
2018-04-12T03:07:13.663Z,8.30
2018-04-12T03:09:41.155Z,8.30
2018-04-12T03:12:08.629Z,8.40
2018-04-12T03:14:36.125Z,8.50
2018-04-12T03:17:03.609Z,8.60
2018-04-12T03:19:31.064Z,8.60
2018-04-12T03:21:58.563Z,8.60
2018-04-12T03:24:26.072Z,8.60
2018-04-12T03:26:53.550Z,8.80
2018-04-12T03:29:21.822Z,8.80
2018-04-12T03:31:49.305Z,8.80
2018-04-12T03:34:16.782Z,8.90
2018-04-12T03:36:44.270Z,8.90
2018-04-12T03:39:11.804Z,8.90
2018-04-12T03:41:39.288Z,8.90
2018-04-12T03:44:06.759Z,9.00
2018-04-12T03:46:34.253Z,9.00
2018-04-12T03:49:01.756Z,9.00
2018-04-12T03:51:29.258Z,9.00
2018-04-12T03:53:56.749Z,9.00
2018-04-12T03:56:24.226Z,9.00
2018-04-12T03:58:51.793Z,9.00
2018-04-12T04:01:19.277Z,8.90
2018-04-12T04:03:46.766Z,8.90
2018-04-12T04:06:14.238Z,8.90
2018-04-12T04:08:41.693Z,8.90
2018-04-12T04:11:09.183Z,8.90
2018-04-12T04:13:36.638Z,8.90
2018-04-12T04:16:15.997Z,8.90
2018-04-12T04:18:56.102Z,9.00
2018-04-12T04:21:23.582Z,9.00
2018-04-12T04:23:51.051Z,8.90
2018-04-12T04:26:18.525Z,8.90
2018-04-12T04:28:46.789Z,9.00
2018-04-12T04:31:14.287Z,9.00
2018-04-12T04:33:41.774Z,9.00
2018-04-12T04:36:09.273Z,9.10
2018-04-12T04:38:36.748Z,9.10
2018-04-12T04:41:04.218Z,9.10
2018-04-12T04:43:31.709Z,9.10
2018-04-12T04:45:59.515Z,9.10
2018-04-12T04:48:27.813Z,9.10
2018-04-12T04:50:55.325Z,9.10
2018-04-12T04:53:22.805Z,9.10
2018-04-12T04:55:50.280Z,9.10
2018-04-12T04:58:17.751Z,9.10
2018-04-12T05:00:45.228Z,9.20
2018-04-12T05:03:12.712Z,9.10
2018-04-12T05:05:40.215Z,9.20
2018-04-12T05:08:07.818Z,9.10
2018-04-12T05:10:35.301Z,9.10
2018-04-12T05:13:02.788Z,9.20
2018-04-12T05:15:30.306Z,9.20
2018-04-12T05:17:57.762Z,9.20
2018-04-12T05:20:25.268Z,9.20
2018-04-12T05:22:52.739Z,9.20
2018-04-12T05:25:20.223Z,9.20
2018-04-12T05:27:47.736Z,9.30
2018-04-12T05:30:15.222Z,9.30
2018-04-12T05:32:42.704Z,9.30
2018-04-12T05:35:10.165Z,9.40
2018-04-12T05:37:37.636Z,9.30
2018-04-12T05:40:05.130Z,9.30
2018-04-12T05:42:32.623Z,9.40
2018-04-12T05:45:00.136Z,9.50
2018-04-12T05:47:27.634Z,9.50
2018-04-12T05:49:55.099Z,9.60
2018-04-12T05:52:22.868Z,9.70
2018-04-12T05:54:50.383Z,9.50
2018-04-12T05:57:17.858Z,9.50
2018-04-12T05:59:45.349Z,9.60
2018-04-12T06:02:12.857Z,9.60
2018-04-12T06:04:40.353Z,9.50
2018-04-12T06:07:07.828Z,9.60
2018-04-12T06:09:35.325Z,9.60
2018-04-12T06:12:02.809Z,9.70
2018-04-12T06:14:30.290Z,9.70
2018-04-12T06:16:57.765Z,9.80
2018-04-12T06:19:25.235Z,9.80
2018-04-12T06:21:53.481Z,9.80
2018-04-12T06:24:20.973Z,9.80
2018-04-12T06:26:49.229Z,10.00
2018-04-12T06:29:16.717Z,10.10
2018-04-12T06:31:44.219Z,10.60
2018-04-12T06:34:12.132Z,11.20
2018-04-12T06:36:40.376Z,11.00
2018-04-12T06:39:07.928Z,11.00
2018-04-12T06:41:35.424Z,10.80
2018-04-12T06:44:03.663Z,10.50
2018-04-12T06:46:31.166Z,10.50
2018-04-12T06:48:58.649Z,10.50
2018-04-12T06:51:26.129Z,10.40
2018-04-12T06:53:53.662Z,10.30
2018-04-12T06:56:21.155Z,10.50
2018-04-12T06:58:48.672Z,11.00
2018-04-12T07:01:16.165Z,11.60
2018-04-12T07:03:44.418Z,11.90
2018-04-12T07:06:11.937Z,11.80
2018-04-12T07:08:39.420Z,11.60
2018-04-12T07:11:06.919Z,11.50
2018-04-12T07:13:34.417Z,11.30
2018-04-12T07:16:01.920Z,11.30
2018-04-12T07:18:29.404Z,11.10
2018-04-12T07:20:56.923Z,11.10
2018-04-12T07:23:24.407Z,11.10
2018-04-12T07:25:51.919Z,11.20
2018-04-12T07:28:20.174Z,11.20
2018-04-12T07:30:48.417Z,11.30
2018-04-12T07:33:15.926Z,11.30
2018-04-12T07:35:43.429Z,11.30
2018-04-12T07:38:10.900Z,11.40
2018-04-12T07:40:38.396Z,11.40
2018-04-12T07:43:05.891Z,11.50
2018-04-12T07:45:33.377Z,12.00
2018-04-12T07:48:00.845Z,12.70
2018-04-12T07:50:29.096Z,13.40
2018-04-12T07:52:56.623Z,13.30
2018-04-12T07:55:24.880Z,13.30
2018-04-12T07:57:53.117Z,13.10
2018-04-12T08:00:20.617Z,13.10
2018-04-12T08:02:48.097Z,13.20
2018-04-12T08:05:15.577Z,13.30
2018-04-12T08:07:43.084Z,13.50
2018-04-12T08:10:10.565Z,13.60
2018-04-12T08:12:38.044Z,13.90
2018-04-12T08:15:05.522Z,14.20
2018-04-12T08:17:33.054Z,14.20
2018-04-12T08:20:00.522Z,13.80
2018-04-12T08:22:28.013Z,13.50
2018-04-12T08:24:55.490Z,14.20
2018-04-12T08:27:23.002Z,14.70
2018-04-12T08:29:50.484Z,15.40
2018-04-12T08:32:18.719Z,15.90
2018-04-12T08:34:46.216Z,15.90
2018-04-12T08:37:14.451Z,15.90
2018-04-12T08:39:41.958Z,15.90
2018-04-12T08:42:09.439Z,15.90
2018-04-12T08:44:36.945Z,16.00
2018-04-12T08:47:04.460Z,16.20
2018-04-12T08:49:31.932Z,16.40
2018-04-12T08:51:59.426Z,16.30
2018-04-12T08:54:27.675Z,16.60
2018-04-12T08:56:55.158Z,16.60
2018-04-12T08:59:23.458Z,16.50
2018-04-12T09:01:50.941Z,16.60
2018-04-12T09:04:18.445Z,16.60
2018-04-12T09:06:45.908Z,16.50
2018-04-12T09:09:14.158Z,17.20
2018-04-12T09:11:41.658Z,17.20
2018-04-12T09:14:09.140Z,17.40
2018-04-12T09:16:36.635Z,17.50
2018-04-12T09:19:04.125Z,17.70
2018-04-12T09:21:32.758Z,17.80
2018-04-12T09:24:00.251Z,17.80
2018-04-12T09:26:27.767Z,17.70
2018-04-12T09:28:55.271Z,17.50
2018-04-12T09:31:22.780Z,17.70
2018-04-12T09:33:50.271Z,17.70
2018-04-12T09:36:17.770Z,17.80
2018-04-12T09:38:45.283Z,18.40
2018-04-12T09:41:12.767Z,18.20
2018-04-12T09:43:40.276Z,18.50
2018-04-12T09:46:07.770Z,18.70
2018-04-12T09:48:35.260Z,18.70
2018-04-12T09:51:02.772Z,18.70
2018-04-12T09:53:30.275Z,18.70
2018-04-12T09:55:57.765Z,18.80
2018-04-12T09:58:25.271Z,18.90
2018-04-12T10:00:55.578Z,18.80
2018-04-12T10:03:23.084Z,18.80
2018-04-12T10:05:56.325Z,18.60
2018-04-12T10:08:28.609Z,18.30
2018-04-12T10:10:56.102Z,18.20
2018-04-12T10:13:23.583Z,17.80
2018-04-12T10:15:51.079Z,17.80
2018-04-12T10:18:19.255Z,17.90
2018-04-12T10:20:46.787Z,18.10
2018-04-12T10:23:15.092Z,18.00
2018-04-12T10:25:43.383Z,18.00
2018-04-12T10:28:11.631Z,17.90
2018-04-12T10:30:39.125Z,17.90
2018-04-12T10:33:06.631Z,18.10
2018-04-12T10:35:34.117Z,18.00
2018-04-12T10:38:01.599Z,18.10
2018-04-12T10:40:29.110Z,18.00
2018-04-12T10:42:56.586Z,18.30
2018-04-12T10:45:24.054Z,18.60
2018-04-12T10:47:51.569Z,18.90
2018-04-12T10:50:19.043Z,18.80
2018-04-12T10:52:46.526Z,18.80
2018-04-12T10:55:14.813Z,19.40
2018-04-12T10:57:43.069Z,19.50
2018-04-12T11:00:10.546Z,19.50
2018-04-12T11:02:38.071Z,19.30
2018-04-12T11:05:05.560Z,19.30
2018-04-12T11:07:33.054Z,19.00
2018-04-12T11:10:00.542Z,19.20
2018-04-12T11:12:28.034Z,19.50
2018-04-12T11:14:56.286Z,19.60
2018-04-12T11:17:23.772Z,19.60
2018-04-12T11:19:51.268Z,19.50
2018-04-12T11:22:18.755Z,19.30
2018-04-12T11:24:46.279Z,19.20
2018-04-12T11:27:13.757Z,18.60
2018-04-12T11:29:41.260Z,18.90
2018-04-12T11:32:08.775Z,18.80
2018-04-12T11:34:36.301Z,18.40
2018-04-12T11:37:03.806Z,18.10
2018-04-12T11:39:31.319Z,18.00
2018-04-12T11:41:58.802Z,18.00
2018-04-12T11:44:26.282Z,17.90
2018-04-12T11:46:53.790Z,17.90
2018-04-12T11:49:21.258Z,18.00
2018-04-12T11:51:48.759Z,18.10
2018-04-12T11:54:16.254Z,17.70
2018-04-12T11:56:43.797Z,17.20
2018-04-12T11:59:11.266Z,17.10
2018-04-12T12:01:38.806Z,17.10
2018-04-12T12:04:06.251Z,17.10
2018-04-12T12:06:34.509Z,17.10
2018-04-12T12:09:02.019Z,17.00
2018-04-12T12:11:29.533Z,17.20
2018-04-12T12:13:57.047Z,17.00
2018-04-12T12:16:24.587Z,17.00
2018-04-12T12:18:52.082Z,16.80
2018-04-12T12:21:19.578Z,16.80
2018-04-12T12:23:47.888Z,16.90
2018-04-12T12:26:16.144Z,16.90
2018-04-12T12:28:44.408Z,16.80
2018-04-12T12:31:12.663Z,16.70
2018-04-12T12:33:40.162Z,16.70
2018-04-12T12:36:08.436Z,16.60
2018-04-12T12:38:35.949Z,16.60
2018-04-12T12:41:03.477Z,16.50
2018-04-12T12:43:31.733Z,16.70
2018-04-12T12:45:59.187Z,16.70
2018-04-12T12:48:38.215Z,16.80
2018-04-12T12:51:05.714Z,16.80
2018-04-12T12:53:44.933Z,16.70
2018-04-12T12:56:18.339Z,16.60
2018-04-12T12:58:45.881Z,16.70
2018-04-12T13:01:19.182Z,16.90
2018-04-12T13:03:52.434Z,16.80
2018-04-12T13:06:26.615Z,16.80
2018-04-12T13:08:54.116Z,16.80
2018-04-12T13:11:22.367Z,19.60
2018-04-12T13:13:49.863Z,19.70
2018-04-12T13:16:17.364Z,21.10
2018-04-12T13:18:50.492Z,22.30
2018-04-12T13:21:24.773Z,25.30
2018-04-12T13:23:52.275Z,25.20
2018-04-12T13:26:25.704Z,24.50
2018-04-12T13:29:04.830Z,23.50
2018-04-12T13:31:32.356Z,22.10
2018-04-12T13:34:00.605Z,20.70
2018-04-12T13:36:28.101Z,20.60
2018-04-12T13:38:55.589Z,22.10
2018-04-12T13:41:23.079Z,21.80
2018-04-12T13:43:56.377Z,22.40
2018-04-12T13:46:23.855Z,22.60
2018-04-12T13:48:51.339Z,22.10
2018-04-12T13:51:18.863Z,22.50
2018-04-12T13:53:47.110Z,22.50
2018-04-12T13:56:20.500Z,22.40
2018-04-12T13:58:47.986Z,22.00
2018-04-12T14:01:22.327Z,20.50
2018-04-12T14:03:49.822Z,20.50
2018-04-12T14:06:17.317Z,20.00
2018-04-12T14:08:45.619Z,19.10
2018-04-12T14:11:13.194Z,19.00
2018-04-12T14:13:46.532Z,18.80
2018-04-12T14:16:14.024Z,19.00
2018-04-12T14:18:41.492Z,19.00
2018-04-12T14:21:09.001Z,18.70
2018-04-12T14:23:54.029Z,19.50
2018-04-12T14:26:21.530Z,20.20
2018-04-12T14:28:54.744Z,21.40
2018-04-12T14:31:22.279Z,21.40
2018-04-12T14:33:49.743Z,22.40
2018-04-12T14:36:17.310Z,22.60
2018-04-12T14:38:50.353Z,22.20
2018-04-12T14:41:23.674Z,22.20
2018-04-12T14:43:51.228Z,23.00
2018-04-12T14:46:18.693Z,23.20
2018-04-12T14:48:57.761Z,23.80
2018-04-12T14:51:25.251Z,24.40
2018-04-12T14:53:52.747Z,24.20
2018-04-12T14:56:20.257Z,22.90
2018-04-12T14:58:47.754Z,20.90
2018-04-12T15:01:15.234Z,20.40
2018-04-12T15:03:48.606Z,21.90
2018-04-12T15:06:22.003Z,23.50
2018-04-12T15:08:49.506Z,24.10
2018-04-12T15:11:28.597Z,23.70
2018-04-12T15:13:56.088Z,22.80
2018-04-12T15:16:23.568Z,21.40
2018-04-12T15:18:51.078Z,21.10
2018-04-12T15:21:24.325Z,21.90
2018-04-12T15:23:51.798Z,22.70
2018-04-12T15:26:25.126Z,23.20
2018-04-12T15:28:52.625Z,23.60
2018-04-12T15:31:20.115Z,23.40
2018-04-12T15:33:53.563Z,22.80
2018-04-12T15:36:21.044Z,22.70
2018-04-12T15:38:48.541Z,22.90
2018-04-12T15:41:16.038Z,22.50
2018-04-12T15:43:43.515Z,23.00
2018-04-12T15:46:11.050Z,23.90
2018-04-12T15:48:50.221Z,23.60
2018-04-12T15:51:29.366Z,22.60
2018-04-12T15:54:02.760Z,21.10
2018-04-12T15:56:37.059Z,20.40
2018-04-12T15:59:04.546Z,21.20
2018-04-12T16:01:32.048Z,22.10
2018-04-12T16:03:59.531Z,23.10
2018-04-12T16:06:27.073Z,23.80
2018-04-12T16:08:54.543Z,24.10
2018-04-12T16:11:28.399Z,24.40
2018-04-12T16:13:56.631Z,24.00
2018-04-12T16:16:24.126Z,24.00
2018-04-12T16:18:51.640Z,23.80
2018-04-12T16:21:19.124Z,22.70
2018-04-12T16:23:52.438Z,21.30
2018-04-12T16:26:25.852Z,20.80
2018-04-12T16:28:54.142Z,20.00
2018-04-12T16:31:21.622Z,20.00
2018-04-12T16:33:49.094Z,19.20
2018-04-12T16:36:16.616Z,18.80
2018-04-12T16:38:44.087Z,18.50
2018-04-12T16:41:11.606Z,18.60
2018-04-12T16:43:39.106Z,18.50
2018-04-12T16:46:12.362Z,18.30
2018-04-12T16:48:46.392Z,17.80
2018-04-12T16:51:19.714Z,17.70
2018-04-12T16:53:47.185Z,17.90
2018-04-12T16:56:14.925Z,17.80
2018-04-12T16:58:42.430Z,17.80
2018-04-12T17:01:10.030Z,17.70
2018-04-12T17:03:43.345Z,17.70
2018-04-12T17:06:10.823Z,17.50
2018-04-12T17:08:38.310Z,17.30
2018-04-12T17:11:06.561Z,17.20
2018-04-12T17:13:40.069Z,17.10
2018-04-12T17:16:07.532Z,17.00
2018-04-12T17:18:35.023Z,17.00
2018-04-12T17:21:02.510Z,17.00
2018-04-12T17:23:35.974Z,17.10
2018-04-12T17:26:09.229Z,17.00
2018-04-12T17:28:42.489Z,17.10
2018-04-12T17:31:09.950Z,17.10
2018-04-12T17:33:37.462Z,17.00
2018-04-12T17:36:05.714Z,16.80
2018-04-12T17:38:33.294Z,16.80
2018-04-12T17:41:01.558Z,16.50
2018-04-12T17:43:29.462Z,16.60
2018-04-12T17:45:56.934Z,16.50
2018-04-12T17:48:29.985Z,16.40
2018-04-12T17:50:58.227Z,16.30
2018-04-12T17:53:25.784Z,16.30
2018-04-12T17:55:59.163Z,16.30
2018-04-12T17:58:26.659Z,16.30
2018-04-12T18:00:54.391Z,16.20
2018-04-12T18:03:28.597Z,16.10
2018-04-12T18:05:56.192Z,16.10
2018-04-12T18:08:23.658Z,16.00
2018-04-12T18:10:51.170Z,16.00
2018-04-12T18:13:24.608Z,15.90
2018-04-12T18:15:52.966Z,15.80
2018-04-12T18:18:20.459Z,15.70
2018-04-12T18:20:48.766Z,15.60
2018-04-12T18:23:16.288Z,15.50
2018-04-12T18:25:44.549Z,15.40
2018-04-12T18:28:17.608Z,15.40
2018-04-12T18:30:45.136Z,15.30
2018-04-12T18:33:18.636Z,15.20
2018-04-12T18:35:51.739Z,15.20
2018-04-12T18:38:19.226Z,15.00
2018-04-12T18:40:46.950Z,14.80
2018-04-12T18:43:14.456Z,14.80
2018-04-12T18:45:48.451Z,14.60
2018-04-12T18:48:15.971Z,14.50
2018-04-12T18:50:49.082Z,14.30
2018-04-12T18:53:16.622Z,14.20
2018-04-12T18:55:44.106Z,14.10
2018-04-12T18:58:17.440Z,14.00
2018-04-12T19:00:44.956Z,13.90
2018-04-12T19:03:18.794Z,13.80
2018-04-12T19:05:46.297Z,13.60
2018-04-12T19:08:13.826Z,13.50
2018-04-12T19:10:42.100Z,13.40
2018-04-12T19:13:09.596Z,13.40
2018-04-12T19:15:43.017Z,13.30
2018-04-12T19:18:10.494Z,13.10
2018-04-12T19:20:43.784Z,13.00
2018-04-12T19:23:11.321Z,12.90
2018-04-12T19:25:38.844Z,12.80
2018-04-12T19:28:06.341Z,12.70
2018-04-12T19:30:39.661Z,12.50
2018-04-12T19:33:13.021Z,12.30
2018-04-12T19:35:46.036Z,12.30
2018-04-12T19:38:13.565Z,12.10
2018-04-12T19:40:46.672Z,12.10
2018-04-12T19:43:20.139Z,12.00
2018-04-12T19:45:59.395Z,11.90
2018-04-12T19:48:26.937Z,11.90
2018-04-12T19:51:00.239Z,11.90
2018-04-12T19:53:33.662Z,11.90
2018-04-12T19:56:01.187Z,11.90
2018-04-12T19:58:28.693Z,11.70
2018-04-12T20:00:56.206Z,11.60
2018-04-12T20:03:29.277Z,11.50
2018-04-12T20:06:02.895Z,11.50
2018-04-12T20:08:36.194Z,11.50
2018-04-12T20:11:03.726Z,11.50
2018-04-12T20:13:37.143Z,11.50
2018-04-12T20:16:10.475Z,11.30
2018-04-12T20:18:37.947Z,11.20
2018-04-12T20:21:11.276Z,11.10
2018-04-12T20:23:44.492Z,10.90
2018-04-12T20:26:17.895Z,11.00
2018-04-12T20:28:45.696Z,11.00
2018-04-12T20:31:19.196Z,11.00
2018-04-12T20:33:47.508Z,10.90
2018-04-12T20:36:26.698Z,10.90
2018-04-12T20:38:54.201Z,10.90
2018-04-12T20:41:21.717Z,10.60
2018-04-12T20:43:50.553Z,10.30
2018-04-12T20:46:18.044Z,10.10
2018-04-12T20:48:51.141Z,9.90
2018-04-12T20:51:18.675Z,9.80
2018-04-12T20:53:51.978Z,9.80
2018-04-12T20:56:19.499Z,9.70
2018-04-12T20:58:47.006Z,9.70
2018-04-12T21:01:20.237Z,9.60
2018-04-12T21:03:47.743Z,9.60
2018-04-12T21:06:15.233Z,9.60
2018-04-12T21:08:42.727Z,9.50
2018-04-12T21:11:16.112Z,9.50
2018-04-12T21:13:49.413Z,9.40
2018-04-12T21:16:22.788Z,9.30
2018-04-12T21:18:51.054Z,9.20
2018-04-12T21:21:18.534Z,9.20
2018-04-12T21:23:52.718Z,9.10
2018-04-12T21:26:21.018Z,8.90
2018-04-12T21:28:48.438Z,8.80
2018-04-12T21:31:15.967Z,8.70
2018-04-12T21:33:49.175Z,8.70
2018-04-12T21:36:16.688Z,8.70
2018-04-12T21:38:56.659Z,9.00
2018-04-12T21:41:24.133Z,8.90
2018-04-12T21:43:58.065Z,9.30
2018-04-12T21:46:25.562Z,9.20
2018-04-12T21:48:59.385Z,9.30
2018-04-12T21:51:33.231Z,9.10
2018-04-12T21:54:12.412Z,9.00
2018-04-12T21:56:39.911Z,8.90
2018-04-12T21:59:13.241Z,8.80
2018-04-12T22:01:40.971Z,8.60
2018-04-12T22:04:08.432Z,8.50
2018-04-12T22:06:41.552Z,8.30
2018-04-12T22:09:14.926Z,8.20
2018-04-12T22:11:48.350Z,8.10
2018-04-12T22:14:15.805Z,8.20
2018-04-12T22:16:43.287Z,8.30
2018-04-12T22:19:11.527Z,8.40
2018-04-12T22:21:39.007Z,8.40
2018-04-12T22:24:07.252Z,8.70
2018-04-12T22:26:34.742Z,8.60
2018-04-12T22:29:14.678Z,8.90
2018-04-12T22:31:48.056Z,8.80
2018-04-12T22:34:15.546Z,8.90
2018-04-12T22:36:43.788Z,8.90
2018-04-12T22:39:17.077Z,8.90
2018-04-12T22:41:44.578Z,8.60
2018-04-12T22:44:12.289Z,8.40
2018-04-12T22:46:39.763Z,8.30
2018-04-12T22:49:07.247Z,8.20
2018-04-12T22:51:35.529Z,7.90
2018-04-12T22:54:09.325Z,7.70
2018-04-12T22:56:37.602Z,7.70
2018-04-12T22:59:05.841Z,7.60
2018-04-12T23:01:39.050Z,7.60
2018-04-12T23:04:06.537Z,7.70
2018-04-12T23:06:34.059Z,7.70
2018-04-12T23:09:01.502Z,7.70
2018-04-12T23:11:34.565Z,7.70
2018-04-12T23:14:02.053Z,7.70
2018-04-12T23:16:29.550Z,7.70
2018-04-12T23:19:03.626Z,7.80
2018-04-12T23:21:31.081Z,7.80
2018-04-12T23:24:04.431Z,7.90
2018-04-12T23:26:37.837Z,8.00
2018-04-12T23:29:11.273Z,8.10
2018-04-12T23:31:38.727Z,8.10
2018-04-12T23:34:12.119Z,8.20
2018-04-12T23:36:39.619Z,8.20
2018-04-12T23:39:07.100Z,8.20
2018-04-12T23:41:40.469Z,8.10
2018-04-12T23:44:14.592Z,8.00
2018-04-12T23:46:42.864Z,7.90
2018-04-12T23:49:11.122Z,7.80
2018-04-12T23:51:38.599Z,7.70
2018-04-12T23:54:12.406Z,7.40
2018-04-12T23:56:39.874Z,7.40
2018-04-12T23:59:12.941Z,7.20
